Time,TemperatureF,DewpointF,PressureIn,WindDirection,WindDirectionDegrees,WindSpeedMPH,WindSpeedGustMPH,Humidity,HourlyPrecipIn,Conditions,Clouds,dailyrainin,SolarRadiationWatts/m^2,SoftwareType,DateUTC
2013-04-06 00:04:00,44.0,44.0,-100.00,NNW,337,3.0,4.0,99,0.00,,,0.00,0.000000,,2013-04-06 04:04:00,
2013-04-06 00:33:00,42.0,42.0,-100.00,NE,53,1.0,4.0,99,0.00,,,0.00,0.000000,,2013-04-06 04:33:00,
2013-04-06 00:43:00,42.0,42.0,-100.00,NE,53,1.0,4.0,99,0.00,,,0.00,0.000000,,2013-04-06 04:43:00,
2013-04-06 00:53:00,42.0,42.0,-100.00,NE,53,1.0,4.0,99,0.00,,,0.00,0.000000,,2013-04-06 04:53:00,
2013-04-06 01:02:00,42.0,42.0,-100.00,NE,53,1.0,4.0,99,0.00,,,0.00,0.000000,,2013-04-06 05:02:00,
2013-04-06 01:43:00,41.0,41.0,-100.00,NE,41,0.0,5.0,99,0.00,,,0.00,0.000000,,2013-04-06 05:43:00,
2013-04-06 01:52:00,41.0,41.0,-100.00,NE,41,0.0,5.0,99,0.00,,,0.00,0.000000,,2013-04-06 05:52:00,
2013-04-06 02:03:00,41.0,41.0,-100.00,NE,41,0.0,5.0,99,0.00,,,0.00,0.000000,,2013-04-06 06:03:00,
2013-04-06 02:33:00,40.0,40.0,-100.00,North,6,0.0,0.0,100,0.00,,,-99.99,0.000000,,2013-04-06 06:33:00,
2013-04-06 02:43:00,40.0,40.0,-100.00,North,6,0.0,0.0,100,0.00,,,-99.99,0.000000,,2013-04-06 06:43:00,
2013-04-06 02:53:00,40.0,40.0,-100.00,North,6,0.0,0.0,100,0.00,,,-99.99,0.000000,,2013-04-06 06:53:00,
2013-04-06 03:04:00,40.0,40.0,-100.00,North,6,0.0,0.0,100,0.00,,,-99.99,0.000000,,2013-04-06 07:04:00,
2013-04-06 03:34:00,38.0,38.0,-100.00,NNE,28,2.0,4.0,100,0.00,,,0.00,0.000000,,2013-04-06 07:34:00,
2013-04-06 03:45:00,38.0,38.0,-100.00,NNE,28,2.0,4.0,100,0.00,,,0.00,0.000000,,2013-04-06 07:45:00,
2013-04-06 03:53:00,38.0,38.0,-100.00,NNE,28,2.0,4.0,100,0.00,,,0.00,0.000000,,2013-04-06 07:53:00,
2013-04-06 04:02:00,38.0,38.0,-100.00,NNE,28,2.0,4.0,100,0.00,,,0.00,0.000000,,2013-04-06 08:02:00,
2013-04-06 04:32:00,37.0,37.0,-100.00,NE,43,3.0,5.0,100,0.00,,,0.00,0.000000,,2013-04-06 08:32:00,
2013-04-06 04:43:00,37.0,37.0,-100.00,NE,43,3.0,5.0,100,0.00,,,0.00,0.000000,,2013-04-06 08:43:00,
2013-04-06 04:52:00,37.0,37.0,-100.00,NE,43,3.0,5.0,100,0.00,,,0.00,0.000000,,2013-04-06 08:52:00,
2013-04-06 05:02:00,37.0,37.0,-100.00,NE,43,3.0,5.0,100,0.00,,,0.00,0.000000,,2013-04-06 09:02:00,
2013-04-06 05:33:00,37.0,37.0,-100.00,NNE,31,3.0,5.0,100,0.00,,,-99.99,0.000000,,2013-04-06 09:33:00,
2013-04-06 05:43:00,37.0,37.0,-100.00,NNE,31,3.0,5.0,100,0.00,,,-99.99,0.000000,,2013-04-06 09:43:00,
2013-04-06 05:53:00,37.0,37.0,-100.00,NNE,31,3.0,5.0,100,0.00,,,-99.99,0.000000,,2013-04-06 09:53:00,
2013-04-06 06:03:00,37.0,37.0,-100.00,NNE,31,3.0,5.0,100,0.00,,,-99.99,0.000000,,2013-04-06 10:03:00,
2013-04-06 06:33:00,36.0,36.0,-100.00,NE,39,3.0,6.0,100,0.00,,,0.00,0.000000,,2013-04-06 10:33:00,
2013-04-06 06:43:00,36.0,36.0,-100.00,NE,39,3.0,6.0,100,0.00,,,0.00,0.000000,,2013-04-06 10:43:00,
2013-04-06 06:53:00,36.0,36.0,-100.00,NE,39,3.0,6.0,100,0.00,,,0.00,0.000000,,2013-04-06 10:53:00,
2013-04-06 07:03:00,36.0,36.0,-100.00,NE,39,3.0,6.0,100,0.00,,,0.00,0.000000,,2013-04-06 11:03:00,
2013-04-06 07:33:00,36.0,36.0,-100.00,North,11,2.0,5.0,100,0.00,,,0.00,0.000000,,2013-04-06 11:33:00,
2013-04-06 07:43:00,36.0,36.0,-100.00,North,11,2.0,5.0,100,0.00,,,0.00,0.000000,,2013-04-06 11:43:00,
2013-04-06 07:53:00,36.0,36.0,-100.00,North,11,2.0,5.0,100,0.00,,,0.00,0.000000,,2013-04-06 11:53:00,
2013-04-06 08:02:00,36.0,36.0,-100.00,North,11,2.0,5.0,100,0.00,,,0.00,0.000000,,2013-04-06 12:02:00,
2013-04-06 08:33:00,36.0,36.0,-100.00,NE,35,4.0,6.0,100,0.00,,,0.00,19.000000,,2013-04-06 12:33:00,
2013-04-06 08:44:00,36.0,36.0,-100.00,NE,35,4.0,6.0,100,0.00,,,0.00,19.000000,,2013-04-06 12:44:00,
2013-04-06 08:53:00,36.0,36.0,-100.00,NE,35,4.0,6.0,100,0.00,,,0.00,19.000000,,2013-04-06 12:53:00,
2013-04-06 09:03:00,36.0,36.0,-100.00,NE,35,4.0,6.0,100,0.00,,,0.00,19.000000,,2013-04-06 13:03:00,
2013-04-06 09:05:00,45.0,45.0,-100.00,East,79,2.0,4.0,100,0.00,,,0.00,89.000000,,2013-04-06 13:05:00,
2013-04-06 09:33:00,45.0,45.0,-100.00,East,79,2.0,4.0,100,0.00,,,0.00,89.000000,,2013-04-06 13:33:00,
2013-04-06 09:43:00,45.0,45.0,-100.00,East,79,2.0,4.0,100,0.00,,,0.00,89.000000,,2013-04-06 13:43:00,
2013-04-06 09:54:00,45.0,45.0,-100.00,East,79,2.0,4.0,100,0.00,,,0.00,89.000000,,2013-04-06 13:54:00,
2013-04-06 10:33:00,55.0,55.0,-100.00,SE,131,6.0,10.0,99,0.00,,,0.00,156.000000,,2013-04-06 14:33:00,
2013-04-06 10:43:00,55.0,55.0,-100.00,SE,131,6.0,10.0,99,0.00,,,0.00,156.000000,,2013-04-06 14:43:00,
2013-04-06 10:53:00,55.0,55.0,-100.00,SE,131,6.0,10.0,99,0.00,,,0.00,156.000000,,2013-04-06 14:53:00,
2013-04-06 11:02:00,55.0,55.0,-100.00,SE,131,6.0,10.0,99,0.00,,,0.00,156.000000,,2013-04-06 15:02:00,
2013-04-06 11:05:00,66.0,42.0,-100.00,SSW,192,6.0,11.0,41,0.00,,,0.00,719.000000,,2013-04-06 15:05:00,
2013-04-06 11:33:00,66.0,42.0,-100.00,SSW,192,6.0,11.0,41,0.00,,,0.00,719.000000,,2013-04-06 15:33:00,
2013-04-06 11:43:00,66.0,42.0,-100.00,SSW,192,6.0,11.0,41,0.00,,,0.00,719.000000,,2013-04-06 15:43:00,
2013-04-06 11:54:00,66.0,42.0,-100.00,SSW,192,6.0,11.0,41,0.00,,,0.00,719.000000,,2013-04-06 15:54:00,
2013-04-06 12:33:00,71.0,40.0,-100.00,SSW,193,6.0,12.0,33,0.00,,,0.00,895.000000,,2013-04-06 16:33:00,
2013-04-06 12:43:00,71.0,40.0,-100.00,SSW,193,6.0,12.0,33,0.00,,,0.00,895.000000,,2013-04-06 16:43:00,
2013-04-06 12:53:00,71.0,40.0,-100.00,SSW,193,6.0,12.0,33,0.00,,,0.00,895.000000,,2013-04-06 16:53:00,
2013-04-06 13:03:00,71.0,40.0,-100.00,SSW,193,6.0,12.0,33,0.00,,,0.00,895.000000,,2013-04-06 17:03:00,
2013-04-06 13:33:00,73.0,38.0,-100.00,SSE,153,6.0,12.0,28,0.00,,,0.00,1002.000000,,2013-04-06 17:33:00,
2013-04-06 13:43:00,73.0,38.0,-100.00,SSE,153,6.0,12.0,28,0.00,,,0.00,1002.000000,,2013-04-06 17:43:00,
2013-04-06 13:53:00,73.0,38.0,-100.00,SSE,153,6.0,12.0,28,0.00,,,0.00,1002.000000,,2013-04-06 17:53:00,
2013-04-06 14:03:00,73.0,38.0,-100.00,SSE,153,6.0,12.0,28,0.00,,,0.00,1002.000000,,2013-04-06 18:03:00,
2013-04-06 14:32:00,75.0,36.0,-100.00,SSE,157,5.0,14.0,24,0.00,,,0.00,1032.000000,,2013-04-06 18:32:00,
2013-04-06 14:43:00,75.0,36.0,-100.00,SSE,157,5.0,14.0,24,0.00,,,0.00,1032.000000,,2013-04-06 18:43:00,
2013-04-06 14:52:00,75.0,36.0,-100.00,SSE,157,5.0,14.0,24,0.00,,,0.00,1032.000000,,2013-04-06 18:52:00,
2013-04-06 15:03:00,75.0,36.0,-100.00,SSE,157,5.0,14.0,24,0.00,,,0.00,1032.000000,,2013-04-06 19:03:00,
2013-04-06 15:33:00,76.0,36.0,-100.00,SSE,165,7.0,12.0,23,0.00,,,0.00,989.000000,,2013-04-06 19:33:00,
2013-04-06 15:42:00,76.0,36.0,-100.00,SSE,165,7.0,12.0,23,0.00,,,0.00,989.000000,,2013-04-06 19:42:00,
2013-04-06 15:54:00,76.0,36.0,-100.00,SSE,165,7.0,12.0,23,0.00,,,0.00,989.000000,,2013-04-06 19:54:00,
2013-04-06 16:03:00,76.0,36.0,-100.00,SSE,165,7.0,12.0,23,0.00,,,0.00,989.000000,,2013-04-06 20:03:00,
2013-04-06 16:32:00,76.0,38.0,-100.00,SSW,205,6.0,13.0,25,0.00,,,0.00,875.000000,,2013-04-06 20:32:00,
2013-04-06 16:42:00,76.0,38.0,-100.00,SSW,205,6.0,13.0,25,0.00,,,0.00,875.000000,,2013-04-06 20:42:00,
2013-04-06 16:53:00,76.0,38.0,-100.00,SSW,205,6.0,13.0,25,0.00,,,0.00,875.000000,,2013-04-06 20:53:00,
2013-04-06 17:02:00,76.0,38.0,-100.00,SSW,205,6.0,13.0,25,0.00,,,0.00,875.000000,,2013-04-06 21:02:00,
2013-04-06 17:33:00,76.0,36.0,-100.00,SSW,212,3.0,10.0,23,0.00,,,0.00,688.000000,,2013-04-06 21:33:00,
2013-04-06 17:43:00,76.0,36.0,-100.00,SSW,212,3.0,10.0,23,0.00,,,0.00,688.000000,,2013-04-06 21:43:00,
2013-04-06 17:53:00,76.0,36.0,-100.00,SSW,212,3.0,10.0,23,0.00,,,0.00,688.000000,,2013-04-06 21:53:00,
2013-04-06 18:03:00,76.0,36.0,-100.00,SSW,212,3.0,10.0,23,0.00,,,0.00,688.000000,,2013-04-06 22:03:00,
2013-04-06 18:35:00,71.0,35.0,-100.00,WSW,249,5.0,11.0,27,0.00,,,0.00,229.000000,,2013-04-06 22:35:00,
2013-04-06 18:44:00,71.0,35.0,-100.00,WSW,249,5.0,11.0,27,0.00,,,0.00,229.000000,,2013-04-06 22:44:00,
2013-04-06 18:55:00,71.0,35.0,-100.00,WSW,249,5.0,11.0,27,0.00,,,0.00,229.000000,,2013-04-06 22:55:00,
2013-04-06 19:03:00,71.0,35.0,-100.00,WSW,249,5.0,11.0,27,0.00,,,0.00,229.000000,,2013-04-06 23:03:00,
2013-04-06 19:34:00,65.0,40.0,-100.00,West,260,5.0,13.0,40,0.00,,,0.00,42.000000,,2013-04-06 23:34:00,
2013-04-06 19:43:00,65.0,40.0,-100.00,West,260,5.0,13.0,40,0.00,,,0.00,42.000000,,2013-04-06 23:43:00,
2013-04-06 19:53:00,65.0,40.0,-100.00,West,260,5.0,13.0,40,0.00,,,0.00,42.000000,,2013-04-06 23:53:00,
2013-04-06 20:02:00,65.0,40.0,-100.00,West,260,5.0,13.0,40,0.00,,,0.00,42.000000,,2013-04-07 00:02:00,
2013-04-06 20:33:00,60.0,41.0,-100.00,West,276,3.0,7.0,49,0.00,,,0.00,17.000000,,2013-04-07 00:33:00,
2013-04-06 20:44:00,60.0,41.0,-100.00,West,276,3.0,7.0,49,0.00,,,0.00,17.000000,,2013-04-07 00:44:00,
2013-04-06 20:53:00,60.0,41.0,-100.00,West,276,3.0,7.0,49,0.00,,,0.00,17.000000,,2013-04-07 00:53:00,
2013-04-06 21:02:00,60.0,41.0,-100.00,West,276,3.0,7.0,49,0.00,,,0.00,17.000000,,2013-04-07 01:02:00,
2013-04-06 21:33:00,57.0,44.0,-100.00,WSW,243,7.0,15.0,62,0.00,,,0.00,0.000000,,2013-04-07 01:33:00,
2013-04-06 21:43:00,57.0,44.0,-100.00,WSW,243,7.0,15.0,62,0.00,,,0.00,0.000000,,2013-04-07 01:43:00,
2013-04-06 21:53:00,57.0,44.0,-100.00,WSW,243,7.0,15.0,62,0.00,,,0.00,0.000000,,2013-04-07 01:53:00,
2013-04-06 22:03:00,57.0,44.0,-100.00,WSW,243,7.0,15.0,62,0.00,,,0.00,0.000000,,2013-04-07 02:03:00,
2013-04-06 22:33:00,58.0,44.0,-100.00,WSW,253,7.0,14.0,60,0.00,,,0.00,0.000000,,2013-04-07 02:33:00,
2013-04-06 22:43:00,58.0,44.0,-100.00,WSW,253,7.0,14.0,60,0.00,,,0.00,0.000000,,2013-04-07 02:43:00,
2013-04-06 22:52:00,58.0,44.0,-100.00,WSW,253,7.0,14.0,60,0.00,,,0.00,0.000000,,2013-04-07 02:52:00,
2013-04-06 23:02:00,58.0,44.0,-100.00,WSW,253,7.0,14.0,60,0.00,,,0.00,0.000000,,2013-04-07 03:02:00,
2013-04-06 23:35:00,56.0,41.0,-100.00,WSW,252,6.0,13.0,56,0.00,,,0.00,0.000000,,2013-04-07 03:35:00,
2013-04-06 23:44:00,56.0,41.0,-100.00,WSW,252,6.0,13.0,56,0.00,,,0.00,0.000000,,2013-04-07 03:44:00,
2013-04-06 23:55:00,56.0,41.0,-100.00,WSW,252,6.0,13.0,56,0.00,,,0.00,0.000000,,2013-04-07 03:55:00,